FZAA/FIH METAR and TAF weather

Enter ICAO airport designator
Station Type Date Time Source
FZAA METAR 2019/07/18 10:00 UTC NOAA

FZAA 181000Z 24008KT 4000 BR SCT016 BKN100 25/21 Q1016 NOSIG


Station Type Date Time Source
FZAA Decoded METAR 2019/07/18 10:00 UTC NOAA

Kinshasa / N'Djili, Congo, Democratic Republic of the (FZAA) 04-23S 015-26E 312M
Jul 18, 2019 - 06:00 AM EDT / 2019.07.18 1000 UTC
Wind: from the WSW (240 degrees) at 9 MPH (8 KT):0
Visibility: 2 mile(s):0
Sky conditions: mostly cloudy
Weather: mist
Temperature: 77 F (25 C)
Dew Point: 69 F (21 C)
Relative Humidity: 78%
Pressure (altimeter): 30.00 in. Hg (1016 hPa)
ob: FZAA 181000Z 24008KT 4000 BR SCT016 BKN100 25/21 Q1016 NOSIG
cycle: 10

Station Type Date Time Source
FZAA TAF 2019/07/18 12:57 UTC NOAA

TAF TAF FZAA 181100Z 1812/1918 24006KT 6000 SCT016
BECMG 1904/1906 3000 BR BKN016
BECMG 1910/1912 6000 NSW NSC

Example: see airport list